Time;durP1;ratioP1;P1;durP2;ratioP2;P2;SDS_P1;SDS_P2;PMS_P1;PMS_P2;Temp;Humidity;BMP_temperature;BMP_pressure;BME280_temperature;BME280_humidity;BME280_pressure;Samples;Min_cycle;Max_cycle;Signal;HPM_P1;HPM_P2
2024/01/10 00:01:32;;;;;;;19.50;10.18;;;-3.60;99.90;;;;;;5078298;28;20048;-60
2024/01/10 00:03:57;;;;;;;25.15;11.75;;;-4.20;99.90;;;;;;5078040;28;20061;-61
2024/01/10 00:06:23;;;;;;;20.42;10.38;;;-3.60;99.90;;;;;;5060718;28;20040;-60
2024/01/10 00:08:49;;;;;;;20.98;11.90;;;-3.70;99.90;;;;;;5078351;28;20053;-61
2024/01/10 00:11:15;;;;;;;19.42;11.15;;;-4.30;99.90;;;;;;5078286;28;20074;-61
2024/01/10 00:13:41;;;;;;;24.45;12.95;;;-3.70;99.90;;;;;;5078015;28;20052;-61
2024/01/10 00:16:07;;;;;;;26.45;12.55;;;-4.20;99.90;;;;;;5059704;28;20090;-61
2024/01/10 00:18:33;;;;;;;23.25;11.52;;;-3.70;99.90;;;;;;5060284;28;20156;-61
2024/01/10 00:20:59;;;;;;;23.92;11.77;;;-3.80;99.90;;;;;;5078133;28;20044;-61
2024/01/10 00:23:25;;;;;;;23.42;11.45;;;-3.90;99.90;;;;;;5078274;28;20124;-61
2024/01/10 00:25:50;;;;;;;23.02;11.93;;;-4.30;99.90;;;;;;5078332;28;20074;-61
2024/01/10 00:28:19;;;;;;;21.63;12.43;;;-3.80;99.90;;;;;;5077769;28;20059;-61
2024/01/10 00:30:47;;;;;;;22.85;12.55;;;-3.70;99.90;;;;;;5080494;28;20068;-61
2024/01/10 00:33:13;;;;;;;24.92;13.35;;;-4.20;99.90;;;;;;5081691;28;20524;-61
2024/01/10 00:35:39;;;;;;;24.33;13.20;;;-4.40;99.90;;;;;;5081568;28;20045;-62
2024/01/10 00:38:04;;;;;;;23.92;12.57;;;-3.90;99.90;;;;;;5081938;28;20104;-61
2024/01/10 00:40:30;;;;;;;26.08;13.40;;;-4.30;99.90;;;;;;5081756;28;20040;-60
2024/01/10 00:42:56;;;;;;;25.10;13.85;;;-4.30;99.90;;;;;;5081503;28;20032;-60
2024/01/10 00:45:21;;;;;;;27.17;13.52;;;-4.20;99.90;;;;;;5063144;28;20117;-61
2024/01/10 00:47:50;;;;;;;24.67;13.45;;;-4.30;99.90;;;;;;5081297;28;20066;-61
2024/01/10 00:50:16;;;;;;;27.17;13.25;;;-4.10;99.90;;;;;;5063290;28;20123;-61
2024/01/10 00:52:45;;;;;;;27.17;15.57;;;-4.40;99.90;;;;;;5063080;28;20108;-61
2024/01/10 00:55:11;;;;;;;28.08;15.27;;;-4.20;99.90;;;;;;5081776;28;20075;-61
2024/01/10 00:57:40;;;;;;;27.02;14.40;;;-3.70;99.90;;;;;;5063128;28;20096;-61
2024/01/10 01:00:07;;;;;;;22.83;13.43;;;-3.80;99.90;;;;;;5081376;28;20052;-61
2024/01/10 01:02:33;;;;;;;27.33;14.13;;;-3.90;99.90;;;;;;5063240;28;20053;-61
2024/01/10 01:04:58;;;;;;;29.42;14.43;;;-4.30;99.90;;;;;;5062694;28;20059;-61
2024/01/10 01:07:26;;;;;;;33.03;15.30;;;-4.30;99.90;;;;;;5080884;28;20047;-61
2024/01/10 01:09:51;;;;;;;24.45;13.73;;;-4.30;99.90;;;;;;5081126;28;20094;-61
2024/01/10 01:12:17;;;;;;;26.77;13.82;;;-4.30;99.90;;;;;;5080995;28;20421;-61
2024/01/10 01:14:43;;;;;;;32.58;15.23;;;-3.60;99.90;;;;;;5081447;28;20059;-61
2024/01/10 01:17:09;;;;;;;27.35;14.48;;;-3.90;99.90;;;;;;5063136;28;20066;-61
2024/01/10 01:19:35;;;;;;;26.25;15.15;;;-3.90;99.90;;;;;;5046181;28;20060;-60
2024/01/10 01:22:00;;;;;;;30.98;15.18;;;-3.60;99.90;;;;;;5079627;28;20104;-61
2024/01/10 01:24:26;;;;;;;29.30;15.68;;;-4.20;99.90;;;;;;5080615;28;20096;-61
2024/01/10 01:26:52;;;;;;;30.23;15.68;;;-3.60;99.90;;;;;;5080553;28;20039;-61
2024/01/10 01:29:18;;;;;;;28.98;15.82;;;-3.80;99.90;;;;;;5080664;28;20396;-60
2024/01/10 01:31:43;;;;;;;30.15;15.32;;;-3.60;99.90;;;;;;5081018;28;20124;-60
2024/01/10 01:34:09;;;;;;;27.27;14.85;;;-4.20;99.90;;;;;;5080548;28;20279;-60
2024/01/10 01:36:35;;;;;;;30.85;15.73;;;-4.20;99.90;;;;;;5080652;28;20036;-61
2024/01/10 01:39:00;;;;;;;27.58;14.50;;;-3.60;99.90;;;;;;5062671;28;20091;-60
2024/01/10 01:41:26;;;;;;;27.77;14.23;;;-3.70;99.90;;;;;;5061975;28;20136;-61
2024/01/10 01:43:52;;;;;;;29.85;14.98;;;-4.30;99.90;;;;;;5080333;28;20036;-60
2024/01/10 01:46:18;;;;;;;32.15;15.38;;;-3.80;99.90;;;;;;5080426;28;20062;-60
2024/01/10 01:48:44;;;;;;;24.92;14.93;;;-4.10;99.90;;;;;;5062477;28;20036;-60
2024/01/10 01:51:11;;;;;;;27.45;14.85;;;-4.20;99.90;;;;;;5080439;28;20102;-60
2024/01/10 01:53:37;;;;;;;29.40;15.65;;;-3.90;99.90;;;;;;5045845;28;20117;-60
2024/01/10 01:56:07;;;;;;;29.55;13.88;;;-4.20;99.90;;;;;;5080125;28;20040;-60
2024/01/10 01:58:34;;;;;;;28.23;14.30;;;-4.30;99.90;;;;;;5079992;28;20078;-60
2024/01/10 02:01:02;;;;;;;30.17;15.98;;;-4.30;99.90;;;;;;5079785;28;20170;-60
2024/01/10 02:03:27;;;;;;;27.48;14.55;;;-3.80;99.90;;;;;;5061819;28;20064;-60
2024/01/10 02:05:54;;;;;;;30.23;15.50;;;-4.10;99.90;;;;;;5080049;28;20044;-60
2024/01/10 02:08:20;;;;;;;27.77;15.38;;;-3.90;99.90;;;;;;5079927;28;20117;-61
2024/01/10 02:10:46;;;;;;;27.70;14.75;;;-3.60;99.90;;;;;;5079838;28;20125;-60
2024/01/10 02:13:12;;;;;;;28.95;14.82;;;-4.00;99.90;;;;;;5079959;28;20150;-60
2024/01/10 02:15:39;;;;;;;26.73;14.48;;;-4.20;99.90;;;;;;5079698;28;20056;-59
2024/01/10 02:18:07;;;;;;;26.30;14.25;;;-4.00;99.90;;;;;;5079679;28;20036;-59
2024/01/10 02:20:33;;;;;;;29.98;14.45;;;-3.70;99.90;;;;;;5079323;28;20048;-59
2024/01/10 02:22:59;;;;;;;28.20;14.02;;;-4.40;99.90;;;;;;5079894;28;20102;-59
2024/01/10 02:25:24;;;;;;;28.77;14.88;;;-3.70;99.90;;;;;;5080007;28;20045;-59
2024/01/10 02:27:50;;;;;;;28.52;14.50;;;-4.10;99.90;;;;;;5079695;28;20430;-59
2024/01/10 02:30:16;;;;;;;27.70;14.32;;;-3.80;99.90;;;;;;5079473;28;20093;-59
2024/01/10 02:32:41;;;;;;;28.88;14.27;;;-4.20;99.90;;;;;;5079139;28;20041;-59
2024/01/10 02:35:08;;;;;;;25.67;14.63;;;-4.30;99.90;;;;;;5078829;28;20037;-59
2024/01/10 02:37:34;;;;;;;25.25;14.15;;;-3.90;99.90;;;;;;5078712;28;20036;-59
2024/01/10 02:39:59;;;;;;;24.38;12.75;;;-4.40;99.90;;;;;;5060902;28;20044;-59
2024/01/10 02:42:28;;;;;;;28.17;14.02;;;-4.50;99.90;;;;;;5079531;28;20032;-59
2024/01/10 02:44:54;;;;;;;28.20;13.63;;;-3.80;99.90;;;;;;5079504;28;20033;-60
2024/01/10 02:47:19;;;;;;;25.48;13.25;;;-3.80;99.90;;;;;;5079233;28;20037;-59
2024/01/10 02:49:45;;;;;;;24.60;12.52;;;-4.50;99.90;;;;;;5078856;28;20053;-59
2024/01/10 02:52:11;;;;;;;24.75;13.07;;;-4.40;99.90;;;;;;5078193;28;20040;-59
2024/01/10 02:54:37;;;;;;;25.58;12.98;;;-4.10;99.90;;;;;;5060815;28;20051;-59
2024/01/10 02:57:03;;;;;;;26.30;13.80;;;-4.30;99.90;;;;;;5079104;28;20037;-59
2024/01/10 02:59:28;;;;;;;21.63;12.50;;;-3.90;99.90;;;;;;5078689;28;20052;-59
2024/01/10 03:01:54;;;;;;;26.77;13.50;;;-3.80;99.90;;;;;;5079000;28;20064;-60
2024/01/10 03:04:20;;;;;;;26.48;13.52;;;-4.00;99.90;;;;;;5060601;28;20072;-59
2024/01/10 03:06:45;;;;;;;24.45;13.15;;;-3.90;99.90;;;;;;5078945;28;20098;-60
2024/01/10 03:09:11;;;;;;;25.67;13.65;;;-4.40;99.90;;;;;;5077375;28;20045;-60
2024/01/10 03:11:37;;;;;;;25.05;13.45;;;-3.80;99.90;;;;;;5077238;28;20048;-60
2024/01/10 03:14:07;;;;;;;26.80;13.95;;;-4.50;99.90;;;;;;5078701;28;20223;-59
2024/01/10 03:16:33;;;;;;;28.55;14.38;;;-4.40;99.90;;;;;;5061144;28;20055;-59
2024/01/10 03:18:59;;;;;;;26.23;12.85;;;-3.80;99.90;;;;;;5078726;28;20503;-59
2024/01/10 03:21:26;;;;;;;30.40;13.85;;;-3.80;99.90;;;;;;5078709;28;20045;-62
2024/01/10 03:23:56;;;;;;;24.48;13.15;;;-4.30;99.90;;;;;;5078724;28;20055;-62
2024/01/10 03:26:22;;;;;;;27.00;13.45;;;-4.50;99.90;;;;;;5060564;28;20048;-62
2024/01/10 03:28:48;;;;;;;26.20;13.48;;;-3.90;99.90;;;;;;5078653;28;20074;-59
2024/01/10 03:31:14;;;;;;;27.73;14.02;;;-3.90;99.90;;;;;;5078353;28;20044;-59
2024/01/10 03:33:40;;;;;;;27.88;15.20;;;-4.40;99.90;;;;;;5060621;28;20040;-59
2024/01/10 03:36:08;;;;;;;28.40;13.57;;;-3.90;99.90;;;;;;5078362;28;20132;-59
2024/01/10 03:38:34;;;;;;;29.40;14.95;;;-3.80;99.90;;;;;;5060595;28;20052;-59
2024/01/10 03:40:59;;;;;;;27.42;13.80;;;-3.80;99.90;;;;;;5060397;28;20056;-59
2024/01/10 03:43:25;;;;;;;30.35;13.85;;;-4.40;99.90;;;;;;5060294;28;20076;-59
2024/01/10 03:45:51;;;;;;;23.95;13.18;;;-3.80;99.90;;;;;;5077067;28;20049;-59
2024/01/10 03:48:16;;;;;;;28.92;14.27;;;-4.00;99.90;;;;;;5076969;28;20059;-59
2024/01/10 03:50:42;;;;;;;27.52;13.93;;;-4.00;99.90;;;;;;5078368;28;20059;-59
2024/01/10 03:53:08;;;;;;;25.23;13.52;;;-4.50;99.90;;;;;;5078712;28;20113;-59
2024/01/10 03:55:33;;;;;;;27.10;15.23;;;-4.50;99.90;;;;;;5043509;28;20064;-59
2024/01/10 03:57:59;;;;;;;26.95;14.02;;;-4.50;99.90;;;;;;5060204;28;20044;-60
2024/01/10 04:00:25;;;;;;;30.77;13.68;;;-3.90;99.90;;;;;;5076816;28;20074;-59
2024/01/10 04:02:51;;;;;;;27.00;14.00;;;-3.90;99.90;;;;;;5059897;28;20064;-59
2024/01/10 04:05:18;;;;;;;25.40;13.55;;;-4.60;99.90;;;;;;5079610;28;20048;-60
2024/01/10 04:07:44;;;;;;;28.88;14.23;;;-4.50;99.90;;;;;;5082187;28;20040;-59
2024/01/10 04:10:11;;;;;;;27.40;14.15;;;-4.50;99.90;;;;;;5047643;28;20102;-60
2024/01/10 04:12:37;;;;;;;30.52;14.75;;;-3.80;99.90;;;;;;5064412;28;20055;-59
2024/01/10 04:15:04;;;;;;;27.15;12.75;;;-4.50;99.90;;;;;;5082234;28;20119;-62
2024/01/10 04:17:30;;;;;;;27.42;14.80;;;-4.00;99.90;;;;;;5081756;28;20048;-62
2024/01/10 04:19:55;;;;;;;27.23;14.05;;;-4.10;99.90;;;;;;5081743;28;20526;-60
2024/01/10 04:22:21;;;;;;;31.33;13.90;;;-4.00;99.90;;;;;;5081866;28;20044;-58
2024/01/10 04:24:47;;;;;;;28.50;14.35;;;-4.40;99.90;;;;;;5063831;28;20056;-60
2024/01/10 04:27:13;;;;;;;28.83;13.68;;;-4.50;99.90;;;;;;5080785;28;20048;-59
2024/01/10 04:29:38;;;;;;;25.23;13.40;;;-4.10;99.90;;;;;;5080641;28;20041;-60
2024/01/10 04:32:05;;;;;;;27.13;13.75;;;-3.80;99.90;;;;;;5081801;28;20040;-59
2024/01/10 04:34:30;;;;;;;25.50;13.55;;;-4.40;99.90;;;;;;5081757;28;20049;-59
2024/01/10 04:36:56;;;;;;;25.85;13.70;;;-4.40;99.90;;;;;;5081645;28;20087;-59
2024/01/10 04:39:21;;;;;;;30.38;14.60;;;-3.90;99.90;;;;;;5081209;28;20047;-60
2024/01/10 04:41:47;;;;;;;25.38;13.25;;;-4.00;99.90;;;;;;5080173;28;20049;-60
2024/01/10 04:44:13;;;;;;;27.63;13.82;;;-3.90;99.90;;;;;;5081496;28;20160;-59
2024/01/10 04:46:40;;;;;;;26.30;13.88;;;-4.60;99.90;;;;;;5080325;28;20040;-59
2024/01/10 04:49:06;;;;;;;28.77;13.32;;;-4.50;99.90;;;;;;5064038;28;20408;-59
2024/01/10 04:51:32;;;;;;;25.40;13.02;;;-4.50;99.90;;;;;;5081335;28;20059;-59
2024/01/10 04:53:58;;;;;;;30.17;14.60;;;-3.90;99.90;;;;;;5081457;28;20382;-59
2024/01/10 04:56:24;;;;;;;27.95;13.45;;;-4.60;99.90;;;;;;5079816;28;20043;-58
2024/01/10 04:58:49;;;;;;;24.75;13.52;;;-4.60;99.90;;;;;;5079740;28;20095;-59
2024/01/10 05:01:15;;;;;;;28.38;14.05;;;-4.50;99.90;;;;;;5079610;28;20040;-58
2024/01/10 05:03:41;;;;;;;27.15;15.32;;;-3.90;99.90;;;;;;5079554;28;20052;-59
2024/01/10 05:06:06;;;;;;;29.50;15.68;;;-4.20;99.90;;;;;;5081182;28;20480;-59
2024/01/10 05:08:32;;;;;;;30.25;15.07;;;-4.20;99.90;;;;;;5081273;28;20048;-59
2024/01/10 05:10:58;;;;;;;27.90;15.27;;;-4.60;99.90;;;;;;5046338;28;20040;-59
2024/01/10 05:13:24;;;;;;;26.52;15.32;;;-4.30;99.90;;;;;;5080972;28;20036;-59
2024/01/10 05:15:49;;;;;;;29.45;15.45;;;-4.30;99.90;;;;;;5080649;28;20047;-59
2024/01/10 05:18:16;;;;;;;26.98;14.48;;;-4.00;99.90;;;;;;5080702;28;20066;-60
2024/01/10 05:20:42;;;;;;;26.58;14.63;;;-3.90;99.90;;;;;;5080997;28;20078;-59
2024/01/10 05:23:08;;;;;;;30.77;14.75;;;-4.40;99.90;;;;;;5081053;28;20060;-59
2024/01/10 05:25:33;;;;;;;27.08;15.07;;;-4.50;99.90;;;;;;5081195;28;20126;-56
2024/01/10 05:27:59;;;;;;;29.05;14.90;;;-4.00;99.90;;;;;;5062691;28;20079;-60
2024/01/10 05:30:25;;;;;;;30.73;15.88;;;-4.40;99.90;;;;;;5078746;28;20056;-59
2024/01/10 05:32:51;;;;;;;29.50;16.05;;;-4.30;99.90;;;;;;5080609;28;20064;-59
2024/01/10 05:35:16;;;;;;;29.05;15.07;;;-3.90;99.90;;;;;;5080086;28;20044;-59
2024/01/10 05:37:42;;;;;;;31.23;16.27;;;-3.80;99.90;;;;;;5062842;28;20424;-59
2024/01/10 05:40:08;;;;;;;28.52;15.30;;;-4.50;99.90;;;;;;5080849;28;20453;-59
2024/01/10 05:42:34;;;;;;;31.63;16.10;;;-4.30;99.90;;;;;;5079294;28;20052;-59
2024/01/10 05:45:02;;;;;;;26.77;15.90;;;-4.10;99.90;;;;;;5080497;28;20059;-58
2024/01/10 05:47:28;;;;;;;27.10;17.00;;;-3.90;99.90;;;;;;5062305;28;20067;-59
2024/01/10 05:49:54;;;;;;;26.83;15.13;;;-4.50;99.90;;;;;;5062370;28;20032;-62
2024/01/10 05:52:20;;;;;;;31.48;16.00;;;-4.60;99.90;;;;;;5079952;28;20055;-62
2024/01/10 05:54:48;;;;;;;28.75;15.27;;;-4.60;99.90;;;;;;5080239;28;20055;-61
2024/01/10 05:57:14;;;;;;;27.77;15.57;;;-4.20;99.90;;;;;;5080376;28;20048;-61
2024/01/10 05:59:40;;;;;;;32.97;17.98;;;-4.50;99.90;;;;;;5079842;28;20053;-59
2024/01/10 06:02:06;;;;;;;32.10;16.70;;;-4.20;99.90;;;;;;5061946;28;20392;-58
2024/01/10 06:04:32;;;;;;;28.50;15.30;;;-4.60;99.90;;;;;;5079374;28;20132;-59
2024/01/10 06:06:58;;;;;;;29.55;14.75;;;-4.60;99.90;;;;;;5079936;28;20100;-59
2024/01/10 06:09:24;;;;;;;28.45;15.85;;;-4.50;99.90;;;;;;5077364;28;20408;-59
2024/01/10 06:11:50;;;;;;;31.17;16.20;;;-4.20;99.90;;;;;;5075619;28;20046;-60
2024/01/10 06:14:16;;;;;;;31.10;15.57;;;-4.00;99.90;;;;;;5074659;28;20389;-60
2024/01/10 06:16:42;;;;;;;29.45;15.75;;;-4.00;99.90;;;;;;5076219;28;20052;-59
2024/01/10 06:19:07;;;;;;;29.20;15.20;;;-4.60;99.90;;;;;;5057895;28;20055;-60
2024/01/10 06:21:33;;;;;;;29.13;16.67;;;-3.90;99.90;;;;;;5075208;28;20057;-59
2024/01/10 06:23:59;;;;;;;29.95;16.02;;;-3.90;99.90;;;;;;5075497;28;20324;-59
2024/01/10 06:26:25;;;;;;;30.02;16.35;;;-4.20;99.90;;;;;;5057537;28;20044;-58
2024/01/10 06:28:50;;;;;;;30.95;16.25;;;-4.50;99.90;;;;;;5056610;28;20151;-59
2024/01/10 06:31:16;;;;;;;31.17;17.10;;;-4.00;99.90;;;;;;5076116;28;20136;-59
2024/01/10 06:33:42;;;;;;;30.92;16.67;;;-4.60;99.90;;;;;;5075329;28;20037;-59
2024/01/10 06:36:07;;;;;;;31.52;16.00;;;-4.30;99.90;;;;;;5075266;28;20094;-59
2024/01/10 06:38:33;;;;;;;32.05;16.48;;;-4.70;99.90;;;;;;5075518;28;20249;-59
2024/01/10 06:40:59;;;;;;;31.10;17.20;;;-4.70;99.90;;;;;;5075460;28;20082;-59
2024/01/10 06:43:24;;;;;;;30.05;15.57;;;-4.20;99.90;;;;;;5075402;28;20523;-59
2024/01/10 06:45:50;;;;;;;40.83;20.48;;;-4.20;99.90;;;;;;5074995;28;20040;-59
2024/01/10 06:48:16;;;;;;;38.13;19.23;;;-4.00;99.90;;;;;;5057111;28;20063;-59
2024/01/10 06:50:44;;;;;;;33.95;17.63;;;-4.40;99.90;;;;;;5075240;28;20106;-59
2024/01/10 06:53:09;;;;;;;34.22;15.85;;;-4.10;99.90;;;;;;5075355;28;20049;-59
2024/01/10 06:55:35;;;;;;;29.27;14.80;;;-4.20;99.90;;;;;;5075301;28;20071;-59
2024/01/10 06:58:00;;;;;;;29.73;16.95;;;-4.70;99.90;;;;;;5073266;28;20737;-60
2024/01/10 07:00:26;;;;;;;28.55;14.80;;;-4.00;99.90;;;;;;5073441;28;20044;-62
2024/01/10 07:02:52;;;;;;;31.42;16.08;;;-4.50;99.90;;;;;;5073997;28;20044;-60
2024/01/10 07:05:19;;;;;;;30.80;16.55;;;-4.40;99.90;;;;;;5073161;28;20506;-61
2024/01/10 07:07:45;;;;;;;27.17;15.32;;;-4.30;99.90;;;;;;5057121;28;20120;-62
2024/01/10 07:10:11;;;;;;;27.90;15.32;;;-4.60;99.90;;;;;;5075215;28;20607;-62
2024/01/10 07:12:37;;;;;;;27.98;15.70;;;-4.50;99.90;;;;;;5075111;28;20056;-62
2024/01/10 07:15:03;;;;;;;27.35;15.95;;;-4.40;99.90;;;;;;5074789;28;20090;-62
2024/01/10 07:17:29;;;;;;;28.02;15.38;;;-4.10;99.90;;;;;;5074862;28;20060;-61
2024/01/10 07:19:56;;;;;;;29.42;15.00;;;-4.50;99.90;;;;;;5074039;28;20056;-61
2024/01/10 07:22:22;;;;;;;29.40;16.10;;;-4.70;99.90;;;;;;5073847;28;20099;-61
2024/01/10 07:24:48;;;;;;;29.20;14.65;;;-4.00;99.90;;;;;;5074201;28;20036;-59
2024/01/10 07:27:14;;;;;;;30.17;14.13;;;-4.30;99.90;;;;;;5055275;28;20055;-59
2024/01/10 07:29:41;;;;;;;28.27;16.30;;;-4.50;99.90;;;;;;5070240;28;20076;-59
2024/01/10 07:32:11;;;;;;;28.77;14.73;;;-4.60;99.90;;;;;;5074688;28;20072;-59
2024/01/10 07:34:37;;;;;;;31.40;15.00;;;-4.40;99.90;;;;;;5073897;28;20056;-59
2024/01/10 07:37:03;;;;;;;32.55;15.82;;;-4.10;99.90;;;;;;5074564;28;20059;-59
2024/01/10 07:39:29;;;;;;;28.80;15.10;;;-4.50;99.90;;;;;;5056084;28;20048;-59
2024/01/10 07:41:55;;;;;;;27.10;14.75;;;-4.20;99.90;;;;;;5074210;28;20490;-59
2024/01/10 07:44:21;;;;;;;27.40;14.35;;;-4.60;99.90;;;;;;5075020;28;20036;-59
2024/01/10 07:46:47;;;;;;;27.92;14.23;;;-4.20;99.90;;;;;;5074546;28;20037;-59
2024/01/10 07:49:15;;;;;;;30.25;15.15;;;-4.20;99.90;;;;;;5074435;28;20059;-59
2024/01/10 07:51:42;;;;;;;27.63;13.95;;;-4.50;99.90;;;;;;5053147;28;20049;-59
2024/01/10 07:54:08;;;;;;;30.52;15.18;;;-4.40;99.90;;;;;;5036474;28;20070;-59
2024/01/10 07:56:33;;;;;;;28.95;15.07;;;-4.60;99.90;;;;;;5054091;28;20083;-60
2024/01/10 07:59:00;;;;;;;28.52;14.23;;;-4.30;99.90;;;;;;5053945;28;20049;-59
2024/01/10 08:01:25;;;;;;;29.42;13.98;;;-4.60;99.90;;;;;;5025088;28;20064;-59
2024/01/10 08:03:51;;;;;;;32.00;14.55;;;-4.60;99.90;;;;;;5056202;28;20076;-59
2024/01/10 08:06:17;;;;;;;30.45;14.35;;;-4.60;99.90;;;;;;5056593;28;20311;-59
2024/01/10 08:08:43;;;;;;;32.75;15.88;;;-4.10;99.90;;;;;;5074287;28;20052;-59
2024/01/10 08:11:09;;;;;;;28.73;15.60;;;-4.30;99.90;;;;;;5073823;28;20082;-59
2024/01/10 08:13:34;;;;;;;26.55;14.18;;;-4.00;99.90;;;;;;5074042;28;20410;-59
2024/01/10 08:16:00;;;;;;;29.00;13.65;;;-4.00;99.90;;;;;;5054859;28;20114;-59
2024/01/10 08:18:26;;;;;;;29.17;15.30;;;-4.20;99.90;;;;;;5056007;28;20056;-59
2024/01/10 08:20:52;;;;;;;28.80;14.15;;;-4.30;99.90;;;;;;5039526;28;20060;-58
2024/01/10 08:23:17;;;;;;;26.55;14.43;;;-4.40;99.90;;;;;;5073802;28;20467;-59
2024/01/10 08:25:44;;;;;;;30.55;14.38;;;-4.00;99.90;;;;;;5074380;28;20056;-59
2024/01/10 08:28:10;;;;;;;28.80;13.05;;;-4.50;99.90;;;;;;5073804;28;20159;-59
2024/01/10 08:30:35;;;;;;;31.80;14.80;;;-4.00;99.90;;;;;;5056275;28;20040;-59
2024/01/10 08:33:04;;;;;;;29.25;13.40;;;-4.40;99.90;;;;;;5073310;28;20056;-59
2024/01/10 08:35:30;;;;;;;31.63;13.52;;;-4.40;99.90;;;;;;5073465;28;20240;-59
2024/01/10 08:37:55;;;;;;;30.52;13.95;;;-4.40;99.90;;;;;;5055604;28;20036;-59
2024/01/10 08:40:25;;;;;;;27.50;13.02;;;-4.40;99.90;;;;;;5058414;28;20075;-59
2024/01/10 08:42:53;;;;;;;28.95;12.63;;;-3.90;99.90;;;;;;5062153;28;20520;-57
2024/01/10 08:45:19;;;;;;;30.23;13.55;;;-4.40;99.90;;;;;;5073110;28;20372;-58
2024/01/10 08:47:45;;;;;;;31.30;12.90;;;-4.30;99.90;;;;;;5058498;28;20057;-59
2024/01/10 08:50:11;;;;;;;34.47;13.43;;;-4.00;99.90;;;;;;5073227;28;20447;-59
2024/01/10 08:52:39;;;;;;;31.80;12.55;;;-4.00;99.90;;;;;;5076819;28;20036;-59
2024/01/10 08:55:06;;;;;;;33.30;13.70;;;-4.20;99.90;;;;;;5077720;28;20049;-58
2024/01/10 08:57:32;;;;;;;34.08;13.88;;;-4.20;99.90;;;;;;5077225;28;20123;-59
2024/01/10 08:59:57;;;;;;;34.03;12.93;;;-3.70;99.90;;;;;;5077544;28;20133;-59
2024/01/10 09:02:24;;;;;;;34.10;13.25;;;-4.00;99.90;;;;;;5025711;28;20135;-59
2024/01/10 09:04:50;;;;;;;34.45;12.70;;;-4.20;99.90;;;;;;5055375;28;20062;-59
2024/01/10 09:07:17;;;;;;;30.63;12.57;;;-3.80;99.90;;;;;;5057132;28;20083;-59
2024/01/10 09:09:43;;;;;;;29.98;11.30;;;-4.20;99.90;;;;;;5057168;28;20063;-59
2024/01/10 09:12:09;;;;;;;28.30;11.75;;;-4.00;99.90;;;;;;5056154;28;20140;-59
2024/01/10 09:14:35;;;;;;;28.08;10.82;;;-4.10;99.90;;;;;;5056099;28;20041;-59
2024/01/10 09:17:02;;;;;;;33.92;10.95;;;-3.60;99.90;;;;;;5057458;28;20634;-59
2024/01/10 09:19:30;;;;;;;26.83;10.43;;;-3.50;99.90;;;;;;5056701;28;20037;-58
2024/01/10 09:21:57;;;;;;;24.50;9.68;;;-3.70;99.90;;;;;;5056489;28;20434;-59
2024/01/10 09:24:25;;;;;;;28.05;9.73;;;-4.00;99.90;;;;;;5057070;28;20051;-59
2024/01/10 09:26:51;;;;;;;28.50;10.27;;;-3.60;99.90;;;;;;5056875;28;20045;-59
2024/01/10 09:29:17;;;;;;;27.67;11.00;;;-3.80;99.90;;;;;;5055826;28;20582;-59
2024/01/10 09:31:43;;;;;;;23.58;8.93;;;-3.50;99.90;;;;;;5054999;28;20104;-59
2024/01/10 09:34:09;;;;;;;25.90;10.70;;;-3.80;99.90;;;;;;5060291;28;20041;-59
2024/01/10 09:36:35;;;;;;;26.38;10.10;;;-3.30;99.90;;;;;;5060348;28;20041;-59
2024/01/10 09:39:02;;;;;;;23.38;8.75;;;-3.50;99.90;;;;;;5060291;28;20040;-58
2024/01/10 09:41:30;;;;;;;24.40;9.23;;;-3.60;99.90;;;;;;5060302;28;20045;-59
2024/01/10 09:43:56;;;;;;;21.75;9.10;;;-3.70;99.90;;;;;;5058362;28;20060;-59
2024/01/10 09:46:23;;;;;;;24.15;9.18;;;-3.20;99.90;;;;;;5060920;28;20523;-59
2024/01/10 09:48:49;;;;;;;23.67;9.88;;;-3.60;99.90;;;;;;5060050;28;20052;-58
2024/01/10 09:51:15;;;;;;;26.23;9.65;;;-3.20;99.90;;;;;;5059171;28;20045;-59
2024/01/10 09:53:46;;;;;;;25.83;9.68;;;-3.20;99.90;;;;;;5060247;28;20394;-59
2024/01/10 09:56:12;;;;;;;23.88;9.68;;;-3.10;99.90;;;;;;5059064;28;20070;-58
2024/01/10 09:58:39;;;;;;;23.70;9.70;;;-3.00;99.90;;;;;;5057947;28;20076;-59
2024/01/10 10:01:06;;;;;;;25.98;9.23;;;-3.10;99.90;;;;;;5060046;28;20045;-58
2024/01/10 10:03:37;;;;;;;22.48;8.55;;;-3.00;99.90;;;;;;5066443;28;20075;-59
2024/01/10 10:06:04;;;;;;;17.80;7.43;;;-3.20;99.90;;;;;;5069559;28;20312;-59
2024/01/10 10:08:30;;;;;;;26.75;8.88;;;-3.30;99.90;;;;;;5079404;28;20110;-59
2024/01/10 10:10:55;;;;;;;21.70;9.00;;;-3.00;99.90;;;;;;5060987;28;20479;-59
2024/01/10 10:13:28;;;;;;;26.00;9.88;;;-3.20;99.90;;;;;;5079307;28;20044;-60
2024/01/10 10:16:02;;;;;;;21.40;8.18;;;-2.80;99.90;;;;;;5077375;28;20059;-59
2024/01/10 10:18:29;;;;;;;22.90;8.70;;;-3.00;99.90;;;;;;5077592;28;20036;-58
2024/01/10 10:21:12;;;;;;;23.92;8.75;;;-2.90;99.90;;;;;;5078731;28;20044;-59
2024/01/10 10:23:39;;;;;;;21.90;8.18;;;-3.10;99.90;;;;;;5078450;28;20051;-60
2024/01/10 10:26:23;;;;;;;21.88;7.68;;;-3.00;99.90;;;;;;5078939;28;20087;-58
2024/01/10 10:28:52;;;;;;;23.45;8.65;;;-3.00;99.90;;;;;;5078614;28;20032;-59
2024/01/10 10:31:19;;;;;;;20.42;9.15;;;-2.70;99.90;;;;;;5061284;28;20409;-59
2024/01/10 10:33:45;;;;;;;26.02;9.15;;;-2.80;99.90;;;;;;5061086;28;20482;-59
2024/01/10 10:36:13;;;;;;;22.85;8.50;;;-2.70;99.90;;;;;;5060363;28;20036;-59
2024/01/10 10:38:39;;;;;;;23.95;9.10;;;-2.60;99.90;;;;;;5078702;28;20113;-59
2024/01/10 10:41:11;;;;;;;23.98;8.23;;;-2.90;99.90;;;;;;5078354;28;20489;-59
2024/01/10 10:43:38;;;;;;;25.52;7.97;;;-2.60;99.90;;;;;;5077639;28;20049;-59
2024/01/10 10:46:09;;;;;;;25.40;9.05;;;-2.80;99.90;;;;;;5079199;28;20044;-62
2024/01/10 10:48:36;;;;;;;20.75;8.02;;;-2.70;99.90;;;;;;5079088;28;20048;-62
2024/01/10 10:51:15;;;;;;;17.45;7.57;;;-2.50;99.90;;;;;;5077607;28;20052;-59
2024/01/10 10:53:45;;;;;;;20.73;7.43;;;-2.50;99.90;;;;;;5079274;28;20044;-58
2024/01/10 10:56:12;;;;;;;20.92;8.57;;;-2.50;99.90;;;;;;5061194;28;20425;-58
2024/01/10 10:58:43;;;;;;;20.90;8.90;;;-2.40;99.90;;;;;;5078848;28;20083;-59
2024/01/10 11:01:12;;;;;;;23.55;8.30;;;-2.40;99.90;;;;;;5078999;28;20049;-59
2024/01/10 11:03:40;;;;;;;20.55;7.28;;;-2.50;99.90;;;;;;5079006;28;20074;-59
2024/01/10 11:06:06;;;;;;;24.60;8.70;;;-2.50;99.90;;;;;;5078740;28;20053;-60
2024/01/10 11:08:56;;;;;;;20.45;7.93;;;-2.50;99.90;;;;;;5078697;28;20040;-60
2024/01/10 11:11:40;;;;;;;24.40;9.60;;;-2.40;99.90;;;;;;5078805;28;20041;-60
2024/01/10 11:14:42;;;;;;;20.00;7.75;;;-2.30;99.90;;;;;;5060731;28;20518;-59
2024/01/10 11:17:08;;;;;;;22.05;9.43;;;-2.20;99.90;;;;;;5078870;28;20036;-59
2024/01/10 11:19:55;;;;;;;19.65;8.93;;;-2.20;99.90;;;;;;5078579;28;20049;-60
2024/01/10 11:22:23;;;;;;;19.10;7.45;;;-2.10;99.90;;;;;;5078718;28;20040;-59
2024/01/10 11:24:49;;;;;;;20.67;9.32;;;-2.10;99.90;;;;;;5077351;28;20501;-59
2024/01/10 11:27:16;;;;;;;18.73;7.68;;;-1.90;99.90;;;;;;5078830;28;20044;-59
2024/01/10 11:29:45;;;;;;;22.08;7.93;;;-2.00;99.90;;;;;;5078534;28;20683;-59
2024/01/10 11:32:16;;;;;;;15.02;6.82;;;-1.80;99.90;;;;;;5060594;28;20041;-59
2024/01/10 11:34:55;;;;;;;21.73;8.45;;;-1.90;99.90;;;;;;5077928;28;20489;-60
2024/01/10 11:37:21;;;;;;;19.25;8.65;;;-1.90;99.90;;;;;;5076885;28;20044;-59
2024/01/10 11:39:47;;;;;;;23.05;9.73;;;-1.70;99.90;;;;;;5078511;28;20064;-59
2024/01/10 11:42:23;;;;;;;18.58;7.60;;;-1.80;99.90;;;;;;5078120;28;20102;-59
2024/01/10 11:44:50;;;;;;;21.10;9.45;;;-1.70;99.90;;;;;;5078755;28;20119;-58
2024/01/10 11:47:17;;;;;;;20.63;7.35;;;-1.60;99.90;;;;;;5060200;28;20036;-60
2024/01/10 11:49:57;;;;;;;18.00;7.97;;;-1.60;99.90;;;;;;5078125;28;20079;-58
2024/01/10 11:52:32;;;;;;;18.13;7.60;;;-1.40;99.90;;;;;;5059629;28;20135;-58
2024/01/10 11:54:57;;;;;;;18.65;7.38;;;-1.40;99.90;;;;;;5078794;28;20096;-58
2024/01/10 11:57:27;;;;;;;18.40;7.72;;;-1.50;99.90;;;;;;5078449;28;20049;-59
2024/01/10 11:59:54;;;;;;;19.77;7.70;;;-1.40;99.90;;;;;;5060394;28;20474;-59
2024/01/10 12:02:21;;;;;;;20.92;7.72;;;-1.40;99.90;;;;;;5059613;28;20056;-60
2024/01/10 12:04:47;;;;;;;18.67;7.28;;;-1.40;99.90;;;;;;5077049;28;20045;-60
2024/01/10 12:07:14;;;;;;;21.48;8.25;;;-1.40;99.90;;;;;;5076176;28;20040;-60
2024/01/10 12:09:40;;;;;;;18.95;7.72;;;-1.40;99.90;;;;;;5074012;28;20512;-60
2024/01/10 12:12:06;;;;;;;16.60;6.95;;;-1.40;99.90;;;;;;5059514;28;20033;-60
2024/01/10 12:14:33;;;;;;;19.52;7.28;;;-1.30;99.90;;;;;;5077366;28;20075;-60
2024/01/10 12:16:59;;;;;;;16.77;7.15;;;-1.30;99.90;;;;;;5059763;28;20086;-60
2024/01/10 12:19:26;;;;;;;17.67;7.15;;;-1.40;99.90;;;;;;5077638;28;20055;-60
2024/01/10 12:21:52;;;;;;;17.08;6.47;;;-1.40;99.90;;;;;;5077327;28;20074;-59
2024/01/10 12:24:18;;;;;;;19.95;8.10;;;-1.30;99.90;;;;;;5059836;28;20051;-59
2024/01/10 12:26:45;;;;;;;19.90;8.07;;;-1.40;99.90;;;;;;5080299;28;20048;-58